createdAt,value
2022-12-03T00:02:58.135Z,101473.80
2022-12-03T00:08:07.758Z,101476.00
2022-12-03T00:13:17.314Z,101476.00
2022-12-03T00:18:26.882Z,101480.80
2022-12-03T00:23:41.811Z,101469.40
2022-12-03T00:28:52.240Z,101465.80
2022-12-03T00:34:02.125Z,101458.00
2022-12-03T00:39:11.825Z,101464.80
2022-12-03T00:44:21.491Z,101456.80
2022-12-03T00:49:30.905Z,101452.60
2022-12-03T00:54:40.401Z,101450.60
2022-12-03T00:59:50.304Z,101446.60
2022-12-03T01:04:59.867Z,101444.00
2022-12-03T01:10:11.605Z,101441.80
2022-12-03T01:15:21.558Z,101447.40
2022-12-03T01:20:31.109Z,101448.40
2022-12-03T01:25:40.702Z,101436.80
2022-12-03T01:31:07.773Z,101433.80
2022-12-03T01:36:17.436Z,101431.60
2022-12-03T01:41:28.384Z,101442.40
2022-12-03T01:46:42.355Z,101436.00
2022-12-03T01:51:53.990Z,101431.00
2022-12-03T01:57:03.728Z,101430.00
2022-12-03T02:02:23.309Z,101426.80
2022-12-03T02:07:35.483Z,101424.80
2022-12-03T02:12:50.728Z,101420.60
2022-12-03T02:18:00.879Z,101412.20
2022-12-03T02:23:20.063Z,101417.20
2022-12-03T02:28:29.854Z,101415.60
2022-12-03T02:33:39.830Z,101405.80
2022-12-03T02:38:51.055Z,101406.40
2022-12-03T02:44:00.862Z,101405.20
2022-12-03T02:49:11.094Z,101393.00
2022-12-03T02:54:20.905Z,101399.20
2022-12-03T02:59:30.599Z,101398.60
2022-12-03T03:04:40.649Z,101393.20
2022-12-03T03:09:50.438Z,101398.20
2022-12-03T03:15:00.838Z,101396.40
2022-12-03T03:20:15.200Z,101392.00
2022-12-03T03:25:25.607Z,101398.20
2022-12-03T03:30:36.817Z,101395.80
2022-12-03T03:35:49.501Z,101388.20
2022-12-03T03:41:00.134Z,101383.00
2022-12-03T03:46:11.095Z,101379.40
2022-12-03T03:51:22.372Z,101383.60
2022-12-03T03:56:32.190Z,101375.20
2022-12-03T04:01:41.987Z,101375.00
2022-12-03T04:06:51.940Z,101374.80
2022-12-03T04:12:18.984Z,101376.00
2022-12-03T04:17:28.511Z,101373.60
2022-12-03T04:22:44.164Z,101371.40
2022-12-03T04:28:11.308Z,101363.80
2022-12-03T04:33:38.684Z,101376.80
2022-12-03T04:38:48.477Z,101372.60
2022-12-03T04:44:15.376Z,101367.80
2022-12-03T04:49:25.147Z,101368.40
2022-12-03T04:54:35.060Z,101367.00
2022-12-03T04:59:44.759Z,101364.20
2022-12-03T05:04:54.650Z,101355.00
2022-12-03T05:10:05.013Z,101360.40
2022-12-03T05:15:14.994Z,101361.80
2022-12-03T05:20:46.951Z,101368.00
2022-12-03T05:26:01.437Z,101366.80
2022-12-03T05:31:11.498Z,101365.00
2022-12-03T05:36:21.250Z,101354.00
2022-12-03T05:41:48.060Z,101354.00
2022-12-03T05:46:57.681Z,101355.60
2022-12-03T05:52:07.681Z,101354.20
2022-12-03T05:57:17.172Z,101352.00
2022-12-03T06:02:26.877Z,101353.40
2022-12-03T06:07:36.566Z,101349.00
2022-12-03T06:12:46.393Z,101349.00
2022-12-03T06:17:56.437Z,101350.40
2022-12-03T06:23:05.828Z,101349.00
2022-12-03T06:28:15.271Z,101357.20
2022-12-03T06:33:24.584Z,101360.40
2022-12-03T06:38:34.989Z,101362.00
2022-12-03T06:43:44.464Z,101356.60
2022-12-03T06:48:54.191Z,101340.20
2022-12-03T06:54:03.847Z,101348.80
2022-12-03T06:59:13.652Z,101339.20
2022-12-03T07:04:23.131Z,101343.80
2022-12-03T07:09:32.991Z,101355.60
2022-12-03T07:14:42.413Z,101341.00
2022-12-03T07:19:52.155Z,101341.60
2022-12-03T07:25:01.672Z,101344.20
2022-12-03T07:30:15.658Z,101338.00
2022-12-03T07:35:25.173Z,101341.20
2022-12-03T07:40:34.836Z,101342.20
2022-12-03T07:45:44.632Z,101338.80
2022-12-03T07:50:54.193Z,101333.60
2022-12-03T07:56:03.702Z,101341.20
2022-12-03T08:01:13.667Z,101337.40
2022-12-03T08:06:23.487Z,101333.60
2022-12-03T08:11:33.954Z,101338.00
2022-12-03T08:16:45.429Z,101341.80
2022-12-03T08:21:59.659Z,101337.60
2022-12-03T08:27:21.577Z,101344.00
2022-12-03T08:32:32.251Z,101347.60
2022-12-03T08:37:42.218Z,101339.80
2022-12-03T08:42:52.088Z,101337.40
2022-12-03T08:48:04.020Z,101333.80
2022-12-03T08:53:31.513Z,101331.00
2022-12-03T08:58:46.371Z,101341.60
2022-12-03T09:03:58.091Z,101330.60
2022-12-03T09:09:07.983Z,101337.20
2022-12-03T09:14:21.356Z,101327.00
2022-12-03T09:19:32.286Z,101332.20
2022-12-03T09:24:41.751Z,101330.60
2022-12-03T09:29:51.349Z,101328.60
2022-12-03T09:35:01.091Z,101332.80
2022-12-03T09:40:13.316Z,101335.40
2022-12-03T09:45:23.153Z,101323.80
2022-12-03T09:50:34.277Z,101317.20
2022-12-03T09:55:51.309Z,101319.20
2022-12-03T10:01:01.272Z,101320.60
2022-12-03T10:06:15.597Z,101314.80
2022-12-03T10:11:28.258Z,101314.60
2022-12-03T10:16:40.516Z,101315.20
2022-12-03T10:21:50.365Z,101307.80
2022-12-03T10:27:02.353Z,101312.20
2022-12-03T10:32:13.875Z,101308.40
2022-12-03T10:37:25.743Z,101306.20
2022-12-03T10:42:38.914Z,101299.80
2022-12-03T10:48:06.273Z,101306.80
2022-12-03T10:53:16.049Z,101301.00
2022-12-03T10:58:31.797Z,101288.00
2022-12-03T11:03:41.881Z,101291.00
2022-12-03T11:08:57.798Z,101291.60
2022-12-03T11:14:11.704Z,101285.60
2022-12-03T11:19:46.852Z,101286.00
2022-12-03T11:25:47.180Z,101274.20
2022-12-03T11:31:12.623Z,101267.60
2022-12-03T11:36:42.124Z,101263.80
2022-12-03T11:42:41.526Z,101259.80
2022-12-03T11:48:12.014Z,101251.80
2022-12-03T11:53:26.962Z,101248.80
2022-12-03T11:58:38.434Z,101255.40
2022-12-03T12:03:51.742Z,101242.80
2022-12-03T12:09:04.254Z,101243.60
2022-12-03T12:14:15.552Z,101236.40
2022-12-03T12:19:43.535Z,101243.40
2022-12-03T12:24:55.697Z,101237.80
2022-12-03T12:30:09.609Z,101234.80
2022-12-03T12:35:25.546Z,101238.00
2022-12-03T12:40:38.281Z,101235.00
2022-12-03T12:45:48.417Z,101240.40
2022-12-03T12:51:10.338Z,101232.80
2022-12-03T12:56:30.343Z,101236.20
2022-12-03T13:01:40.410Z,101237.20
2022-12-03T13:06:53.467Z,101236.60
2022-12-03T13:12:07.660Z,101233.60
2022-12-03T13:17:24.705Z,101244.80
2022-12-03T13:22:34.418Z,101241.40
2022-12-03T13:27:47.237Z,101245.40
2022-12-03T13:32:58.920Z,101245.80
2022-12-03T13:38:18.404Z,101242.60
2022-12-03T13:43:31.130Z,101244.60
2022-12-03T13:48:43.557Z,101237.80
2022-12-03T13:53:53.807Z,101238.00
2022-12-03T13:59:04.641Z,101240.60
2022-12-03T14:04:14.511Z,101237.60
2022-12-03T14:09:24.144Z,101239.40
2022-12-03T14:14:34.248Z,101236.60
2022-12-03T14:19:44.000Z,101246.20
2022-12-03T14:24:53.650Z,101246.60
2022-12-03T14:30:03.876Z,101245.00
2022-12-03T14:35:14.272Z,101251.60
2022-12-03T14:40:24.227Z,101242.40
2022-12-03T14:45:33.904Z,101245.40
2022-12-03T14:50:43.809Z,101242.80
2022-12-03T14:55:54.672Z,101234.40
2022-12-03T15:01:04.364Z,101233.40
2022-12-03T15:06:14.889Z,101227.80
2022-12-03T15:11:24.886Z,101231.00
2022-12-03T15:16:34.488Z,101224.00
2022-12-03T15:21:44.258Z,101217.40
2022-12-03T15:26:53.893Z,101225.40
2022-12-03T15:32:03.648Z,101229.00
2022-12-03T15:37:13.227Z,101224.00
2022-12-03T15:42:22.663Z,101235.80
2022-12-03T15:47:32.611Z,101229.20
2022-12-03T15:52:42.125Z,101235.60
2022-12-03T15:57:52.043Z,101237.00
2022-12-03T16:03:01.549Z,101238.20
2022-12-03T16:08:11.467Z,101236.20
2022-12-03T16:13:21.317Z,101232.80
2022-12-03T16:18:31.059Z,101226.20
2022-12-03T16:23:40.492Z,101233.60
2022-12-03T16:28:49.945Z,101233.80
2022-12-03T16:33:59.413Z,101242.60
2022-12-03T16:39:09.304Z,101246.60
2022-12-03T16:44:32.420Z,101243.00
2022-12-03T16:49:42.061Z,101242.20
2022-12-03T16:54:51.937Z,101247.80
2022-12-03T17:00:01.715Z,101249.00
2022-12-03T17:05:12.135Z,101258.40
2022-12-03T17:10:21.924Z,101254.60
2022-12-03T17:15:31.812Z,101251.80
2022-12-03T17:20:41.642Z,101251.60
2022-12-03T17:25:51.264Z,101255.20
2022-12-03T17:31:00.999Z,101253.80
2022-12-03T17:36:12.284Z,101252.20
2022-12-03T17:41:22.652Z,101256.20
2022-12-03T17:46:32.260Z,101255.00
2022-12-03T17:51:41.875Z,101270.20
2022-12-03T17:56:51.458Z,101255.40
2022-12-03T18:02:01.067Z,101255.80
2022-12-03T18:07:11.129Z,101253.00
2022-12-03T18:12:20.812Z,101258.00
2022-12-03T18:17:30.227Z,101253.40
2022-12-03T18:22:40.213Z,101251.80
2022-12-03T18:27:50.099Z,101258.20
2022-12-03T18:32:59.646Z,101246.80
2022-12-03T18:38:11.334Z,101259.80
2022-12-03T18:43:21.663Z,101257.40
2022-12-03T18:48:31.506Z,101260.20
2022-12-03T18:53:41.191Z,101253.20
2022-12-03T18:58:50.768Z,101249.20
2022-12-03T19:04:00.658Z,101243.80
2022-12-03T19:09:10.558Z,101240.20
2022-12-03T19:14:20.108Z,101240.60
2022-12-03T19:19:30.038Z,101242.20
2022-12-03T19:24:40.228Z,101256.00
2022-12-03T19:29:53.142Z,101254.80
2022-12-03T19:35:05.381Z,101260.00
2022-12-03T19:40:16.587Z,101263.80
2022-12-03T19:45:26.303Z,101262.60
2022-12-03T19:50:35.998Z,101262.80
2022-12-03T19:55:45.680Z,101263.20
2022-12-03T20:00:55.375Z,101268.60
2022-12-03T20:06:06.811Z,101273.20
2022-12-03T20:11:19.348Z,101273.80
2022-12-03T20:16:30.645Z,101282.20
2022-12-03T20:21:42.405Z,101274.80
2022-12-03T20:26:52.255Z,101273.00
2022-12-03T20:32:01.689Z,101273.40
2022-12-03T20:37:11.147Z,101278.80
2022-12-03T20:42:20.654Z,101275.40
2022-12-03T20:47:30.195Z,101282.20
2022-12-03T20:52:45.267Z,101273.80
2022-12-03T20:58:02.981Z,101273.00
2022-12-03T21:03:12.727Z,101277.20
2022-12-03T21:08:40.132Z,101280.40
2022-12-03T21:13:51.299Z,101269.40
2022-12-03T21:19:01.242Z,101271.80
2022-12-03T21:24:11.966Z,101270.80
2022-12-03T21:29:21.773Z,101266.80
2022-12-03T21:34:36.181Z,101260.00
2022-12-03T21:39:46.268Z,101256.00
2022-12-03T21:44:55.862Z,101251.40
2022-12-03T21:50:06.149Z,101255.80
2022-12-03T21:55:16.075Z,101259.00
2022-12-03T22:00:26.749Z,101259.60
2022-12-03T22:05:39.220Z,101248.00
2022-12-03T22:10:48.822Z,101263.60
2022-12-03T22:15:58.702Z,101277.00
2022-12-03T22:21:13.849Z,101275.40
2022-12-03T22:26:23.776Z,101273.60
2022-12-03T22:31:33.207Z,101268.00
2022-12-03T22:36:42.633Z,101276.80
2022-12-03T22:41:52.688Z,101277.60
2022-12-03T22:47:02.602Z,101276.20
2022-12-03T22:52:12.164Z,101269.00
2022-12-03T22:57:21.760Z,101260.80
2022-12-03T23:02:31.444Z,101264.40
2022-12-03T23:07:41.061Z,101267.40
2022-12-03T23:12:50.573Z,101269.40
2022-12-03T23:18:00.421Z,101261.40
2022-12-03T23:23:10.061Z,101265.20
2022-12-03T23:28:19.681Z,101261.80
2022-12-03T23:33:34.000Z,101268.40
2022-12-03T23:38:47.403Z,101258.00
2022-12-03T23:43:57.413Z,101268.40
2022-12-03T23:49:06.998Z,101270.40
2022-12-03T23:54:16.440Z,101271.60
2022-12-03T23:59:25.779Z,101276.20
